Terminal Aerodrome Forecast
Issued by NWS King Salmon, AK

Home | Current Version | Previous Version | Text Only | Print | Product List | Glossary On
Versions: 1 2 3 4 5 6 7 8 9 10 11 12 13 14 15 16 17 18 19 20 21 22 23 24 25 26 27 28 29 30 31 32 33 34 35
000
FTAK31 PANC 180541
TAFAKN
TAF
PAKN 180541Z 1806/1906 08011KT P6SM -SHRA FEW030 OVC040
     FM180900 12011KT P6SM -SHRA SCT040 OVC070
     FM182000 14018G26KT P6SM -SHRA SCT025 OVC040=

USA.gov is the U.S. government's official web portal to all federal, state and local government web resources and services.